Rechercher aéroport 
image banner adimage banner adimage banner ad
image banner ad

CA72 - Community Memorial Hospital

Situé à Ventura, United States

ICAO - CA72, IATA -

Données fournies par Airmate  

Information générale

Coordonnées: N34°16'29" W119°15'33"
Élévation : 175 feet MSL.
Variation magnétique : 14° East
Voir autres Aéroports à California

Données opérationnelles

Special qualification required
Heure actuelle UTC:
Heure actuelle locale:
Météo à : KOXR - Oxnard ( 9 km )
METAR: KOXR 300051Z 28020G24KT 10SM BKN007 19/15 A2986 RMK AO2 RAE46 SLP109 P0000 T01890150 $
TAF: KOXR 292348Z 3000/3024 28016KT P6SM SCT005 FM300400 28006KT P6SM SKC FM300800 VRB03KT 3SM BR OVC005 FM302000 28010KT P6SM SCT008 FM302200 28015KT P6SM SKC
Voir NOTAMs / SUP AIP / TFR affectant cet aéroport [VIEW]
Fréquences de communication: [VIEW]

Pistes:

Coordonnées de l'aéroport

Adresse: Ventura United States

Vue satellite de CA72